Terminal Aerodrome Forecast
Issued by NWS

Home | Current Version | Previous Version | Text Only | Print | Product List | Glossary On
Versions: 1 2 3 4 5 6 7 8 9 10 11 12 13 14 15
000
FTUS43 KMQT 252108 AAA
TAFSAW
TAF AMD
KSAW 252108Z 2521/2618 22010G18KT P6SM VCSH SCT012 BKN022
      TEMPO 2521/2522 BKN012
     FM252200 21010KT P6SM VCSH SCT015 BKN025
     FM260100 24008KT P6SM SCT020 BKN040
     FM261200 27004KT P6SM BKN015=

USA.gov is the U.S. government's official web portal to all federal, state and local government web resources and services.